createdAt,value
2018-09-23T05:12:42.440Z,15.68
2018-09-23T05:15:12.814Z,18.10
2018-09-23T05:17:42.148Z,19.37
2018-09-23T05:20:11.273Z,18.60
2018-09-23T05:22:40.366Z,18.53
2018-09-23T05:25:09.776Z,18.80
2018-09-23T05:27:38.855Z,20.10
2018-09-23T05:30:08.486Z,18.80
2018-09-23T05:32:37.678Z,24.93
2018-09-23T05:35:06.886Z,18.93
2018-09-23T05:37:36.966Z,21.27
2018-09-23T05:40:06.826Z,21.07
2018-09-23T05:42:36.042Z,22.80
2018-09-23T05:45:06.121Z,22.10
2018-09-23T05:47:35.301Z,19.37
2018-09-23T05:50:05.119Z,20.30
2018-09-23T05:52:34.443Z,18.40
2018-09-23T05:55:04.113Z,19.07
2018-09-23T05:57:33.628Z,20.73
2018-09-23T06:00:03.429Z,18.30
2018-09-23T06:02:32.671Z,20.20
2018-09-23T06:05:01.769Z,21.83
2018-09-23T06:07:31.388Z,22.93
2018-09-23T06:10:00.599Z,20.17
2018-09-23T06:12:30.180Z,19.80
2018-09-23T06:14:59.364Z,21.77
2018-09-23T06:17:28.535Z,19.93
2018-09-23T06:19:57.681Z,21.23
2018-09-23T06:22:26.703Z,20.00
2018-09-23T06:24:56.380Z,19.40
2018-09-23T06:27:25.695Z,21.43
2018-09-23T06:29:54.693Z,19.87
2018-09-23T06:32:24.963Z,22.50
2018-09-23T06:34:54.361Z,19.27
2018-09-23T06:37:23.917Z,21.97
2018-09-23T06:39:53.203Z,19.30
2018-09-23T06:42:22.280Z,22.17
2018-09-23T06:44:51.450Z,19.17
2018-09-23T06:47:20.644Z,21.27
2018-09-23T06:49:50.308Z,19.83
2018-09-23T06:52:20.279Z,22.53
2018-09-23T06:54:49.741Z,20.90
2018-09-23T06:57:18.393Z,20.87
2018-09-23T06:59:47.920Z,19.60
2018-09-23T07:02:18.390Z,21.87
2018-09-23T07:04:47.733Z,20.27
2018-09-23T07:07:17.099Z,18.37
2018-09-23T07:09:46.599Z,17.80
2018-09-23T07:12:15.910Z,18.37
2018-09-23T07:14:45.386Z,18.27
2018-09-23T07:17:14.861Z,18.30
2018-09-23T07:19:44.473Z,20.73
2018-09-23T07:22:13.844Z,19.03
2018-09-23T07:24:43.332Z,19.33
2018-09-23T07:27:12.525Z,21.90
2018-09-23T07:29:41.690Z,18.23
2018-09-23T07:32:11.233Z,19.17
2018-09-23T07:34:40.232Z,20.13
2018-09-23T07:37:09.609Z,20.77
2018-09-23T07:39:39.084Z,20.80
2018-09-23T07:42:09.595Z,19.60
2018-09-23T07:44:38.214Z,20.63
2018-09-23T07:47:07.764Z,19.83
2018-09-23T07:49:39.110Z,20.07
2018-09-23T07:52:08.431Z,21.00
2018-09-23T07:54:37.174Z,16.80
2018-09-23T07:57:07.219Z,17.50
2018-09-23T07:59:36.929Z,18.60
2018-09-23T08:02:06.223Z,20.23
2018-09-23T08:04:37.389Z,22.07
2018-09-23T08:07:06.760Z,20.87
2018-09-23T08:09:36.320Z,18.13
2018-09-23T08:12:06.035Z,19.93
2018-09-23T08:14:35.699Z,20.43
2018-09-23T08:17:04.900Z,19.30
2018-09-23T08:19:34.375Z,19.47
2018-09-23T08:22:03.811Z,16.97
2018-09-23T08:24:33.420Z,18.63
2018-09-23T08:27:03.972Z,18.17
2018-09-23T08:29:33.161Z,19.33
2018-09-23T08:32:02.519Z,17.43
2018-09-23T08:34:31.626Z,18.00
2018-09-23T08:37:00.804Z,17.67
2018-09-23T08:39:29.971Z,16.40
2018-09-23T08:42:02.831Z,16.00
2018-09-23T08:44:32.064Z,17.57
2018-09-23T08:47:02.048Z,15.93
2018-09-23T08:49:32.448Z,15.73
2018-09-23T08:52:01.651Z,13.63
2018-09-23T08:54:31.820Z,20.90
2018-09-23T08:57:00.943Z,16.47
2018-09-23T08:59:29.995Z,17.03
2018-09-23T09:01:58.951Z,16.03
2018-09-23T09:04:28.276Z,18.10
2018-09-23T09:06:59.732Z,16.13
2018-09-23T09:09:28.822Z,16.60
2018-09-23T09:11:58.099Z,15.23
2018-09-23T09:14:27.817Z,19.23
2018-09-23T09:17:02.411Z,18.53
2018-09-23T09:19:31.575Z,17.07
2018-09-23T09:22:00.994Z,15.17
2018-09-23T09:24:30.768Z,17.07
2018-09-23T09:26:59.897Z,16.60
2018-09-23T09:29:33.774Z,15.10
2018-09-23T09:32:03.057Z,15.67
2018-09-23T09:34:33.179Z,15.23
2018-09-23T09:37:03.519Z,14.47
2018-09-23T09:39:33.603Z,16.33
2018-09-23T09:42:03.427Z,13.90
2018-09-23T09:44:33.250Z,13.43
2018-09-23T09:47:03.149Z,12.70
2018-09-23T09:49:32.392Z,14.20
2018-09-23T09:52:01.838Z,18.00
2018-09-23T09:54:31.657Z,14.30
2018-09-23T09:57:00.795Z,14.30
2018-09-23T09:59:30.058Z,17.70
2018-09-23T10:01:59.139Z,13.77
2018-09-23T10:04:28.325Z,13.77
2018-09-23T10:06:57.452Z,14.23
2018-09-23T10:09:26.518Z,15.63
2018-09-23T10:11:55.479Z,13.00
2018-09-23T10:14:24.972Z,13.57
2018-09-23T10:16:54.022Z,12.73
2018-09-23T10:19:23.734Z,11.97
2018-09-23T10:21:54.236Z,12.83
2018-09-23T10:24:23.317Z,15.60
2018-09-23T10:26:52.706Z,16.27
2018-09-23T10:29:21.903Z,13.40
2018-09-23T10:31:51.985Z,15.40
2018-09-23T10:34:21.361Z,13.93
2018-09-23T10:36:50.658Z,13.77
2018-09-23T10:39:20.128Z,12.23
2018-09-23T10:41:48.846Z,11.50
2018-09-23T10:44:17.909Z,12.93
2018-09-23T10:46:47.300Z,13.90
2018-09-23T10:49:16.524Z,14.07
2018-09-23T10:51:46.215Z,12.70
2018-09-23T10:54:15.396Z,15.40
2018-09-23T10:56:45.334Z,14.60
2018-09-23T10:59:15.615Z,17.87
2018-09-23T11:01:45.343Z,19.13
2018-09-23T11:04:14.618Z,22.93
2018-09-23T11:06:44.683Z,20.33
2018-09-23T11:09:15.498Z,23.73
2018-09-23T11:11:46.621Z,23.90
2018-09-23T11:14:17.956Z,21.07
2018-09-23T11:16:48.680Z,22.53
2018-09-23T11:19:18.131Z,23.47
2018-09-23T11:21:47.863Z,22.30
2018-09-23T11:24:17.357Z,26.00
2018-09-23T11:26:48.103Z,22.97
2018-09-23T11:29:17.288Z,15.53
2018-09-23T11:31:47.127Z,13.67
2018-09-23T11:34:16.499Z,17.60
2018-09-23T11:36:46.239Z,17.63
2018-09-23T11:39:16.417Z,14.03
2018-09-23T11:41:46.296Z,15.80
2018-09-23T11:44:15.740Z,14.20
2018-09-23T11:46:45.287Z,9.00
2018-09-23T11:49:14.938Z,10.53
2018-09-23T11:51:44.110Z,10.17
2018-09-23T11:54:13.125Z,10.07
2018-09-23T11:56:42.291Z,9.10
2018-09-23T11:59:11.690Z,6.20
2018-09-23T12:01:41.520Z,6.13
2018-09-23T12:04:11.125Z,5.70
2018-09-23T12:06:40.589Z,4.23
2018-09-23T12:09:11.724Z,3.37
2018-09-23T12:11:40.951Z,3.07
2018-09-23T12:14:11.255Z,5.13
2018-09-23T12:16:41.740Z,3.70
2018-09-23T12:19:11.217Z,3.90
2018-09-23T12:21:40.507Z,3.83
2018-09-23T12:24:09.671Z,3.10
2018-09-23T12:26:38.884Z,3.00
2018-09-23T12:29:08.955Z,4.00
2018-09-23T12:31:38.498Z,3.47
2018-09-23T12:34:08.436Z,2.97
2018-09-23T12:36:38.123Z,2.33
2018-09-23T12:39:09.780Z,3.03
2018-09-23T12:41:39.549Z,2.53
2018-09-23T12:44:08.744Z,4.63
2018-09-23T12:46:37.867Z,2.53
2018-09-23T12:49:07.516Z,1.83
2018-09-23T12:51:37.303Z,3.57
2018-09-23T12:54:07.056Z,1.57
2018-09-23T12:56:35.866Z,1.77
2018-09-23T12:59:05.099Z,1.37
2018-09-23T13:01:34.563Z,2.10
2018-09-23T13:04:04.113Z,2.10
2018-09-23T13:06:33.640Z,1.93
2018-09-23T13:09:02.807Z,3.90
2018-09-23T13:11:32.247Z,2.00
2018-09-23T13:14:01.486Z,1.97
2018-09-23T13:16:30.631Z,3.20
2018-09-23T13:19:00.031Z,2.40
2018-09-23T13:21:29.583Z,2.40
2018-09-23T13:23:59.545Z,1.97
2018-09-23T13:26:29.104Z,2.23
2018-09-23T13:28:58.724Z,2.27
2018-09-23T13:31:28.872Z,1.30
2018-09-23T13:33:58.408Z,2.67
2018-09-23T13:36:27.187Z,8.10
2018-09-23T13:38:56.805Z,5.20
2018-09-23T13:41:26.686Z,3.43
2018-09-23T13:43:55.848Z,2.70
2018-09-23T13:46:26.429Z,1.60
2018-09-23T13:48:55.883Z,3.33
2018-09-23T13:51:25.098Z,4.50
2018-09-23T13:53:55.352Z,18.37
2018-09-23T13:56:24.865Z,3.93
2018-09-23T13:58:54.020Z,3.50
2018-09-23T14:01:24.202Z,1.50
2018-09-23T14:03:54.813Z,2.20
2018-09-23T14:06:26.223Z,2.10
2018-09-23T14:08:55.276Z,2.03
2018-09-23T14:11:24.588Z,2.20
2018-09-23T14:13:53.632Z,4.20
2018-09-23T14:16:23.764Z,1.83
2018-09-23T14:18:53.166Z,1.97
2018-09-23T14:21:23.015Z,2.27
2018-09-23T14:23:52.372Z,2.50
2018-09-23T14:26:21.552Z,3.13
2018-09-23T14:28:51.451Z,2.90
2018-09-23T14:31:20.654Z,4.03
2018-09-23T14:33:49.754Z,4.33
2018-09-23T14:36:18.912Z,2.43
2018-09-23T14:38:48.216Z,3.60
2018-09-23T14:41:17.316Z,1.70
2018-09-23T14:43:46.891Z,3.37
2018-09-23T14:46:16.111Z,2.37
2018-09-23T14:48:45.249Z,3.43
2018-09-23T14:51:13.818Z,3.33
2018-09-23T14:53:42.859Z,2.50
2018-09-23T14:56:12.399Z,2.00
2018-09-23T14:58:41.339Z,2.77
2018-09-23T15:01:10.931Z,3.33
2018-09-23T15:03:39.989Z,2.67
2018-09-23T15:06:09.649Z,6.30
2018-09-23T15:08:39.381Z,4.20
2018-09-23T15:11:08.899Z,3.63
2018-09-23T15:13:38.109Z,4.53
2018-09-23T15:16:07.783Z,5.27
2018-09-23T15:18:37.327Z,2.90
2018-09-23T15:21:06.481Z,3.33
2018-09-23T15:23:35.634Z,4.20
2018-09-23T15:26:05.041Z,7.93
2018-09-23T15:28:34.187Z,10.57
2018-09-23T15:31:03.249Z,7.17
2018-09-23T15:33:32.446Z,3.77
2018-09-23T15:36:01.485Z,8.53
2018-09-23T15:38:30.806Z,5.70
2018-09-23T15:40:59.966Z,9.83
2018-09-23T15:43:29.406Z,8.40
2018-09-23T15:45:59.650Z,7.40
2018-09-23T15:48:28.766Z,4.30
2018-09-23T15:50:58.161Z,4.33
2018-09-23T15:53:27.237Z,3.17
2018-09-23T15:55:56.513Z,2.23
2018-09-23T15:58:27.544Z,2.87
2018-09-23T16:00:56.575Z,3.30
2018-09-23T16:03:25.973Z,3.13
2018-09-23T16:05:56.450Z,3.83
2018-09-23T16:08:25.519Z,3.67
2018-09-23T16:10:55.012Z,2.97
2018-09-23T16:13:24.163Z,5.23
2018-09-23T16:15:53.147Z,2.90
2018-09-23T16:18:22.645Z,3.73
2018-09-23T16:20:51.903Z,1.40
2018-09-23T16:23:21.017Z,2.70
2018-09-23T16:25:50.830Z,3.97
2018-09-23T16:28:20.119Z,3.50
2018-09-23T16:30:49.371Z,3.03
2018-09-23T16:33:19.210Z,3.43
2018-09-23T16:35:48.332Z,1.97
2018-09-23T16:38:17.851Z,2.97
2018-09-23T16:40:47.804Z,3.23
2018-09-23T16:43:16.948Z,2.63
2018-09-23T16:45:46.140Z,4.87
2018-09-23T16:48:15.740Z,4.00
2018-09-23T16:50:44.856Z,2.37
2018-09-23T16:53:14.365Z,4.73
2018-09-23T16:55:44.178Z,3.87
2018-09-23T16:58:13.684Z,3.17
2018-09-23T17:00:43.055Z,4.67
2018-09-23T17:03:12.740Z,9.33
2018-09-23T17:05:42.787Z,6.27
2018-09-23T17:08:12.318Z,7.33
2018-09-23T17:10:41.440Z,4.73
2018-09-23T17:13:10.969Z,6.27
2018-09-23T17:15:40.082Z,12.63
2018-09-23T17:18:09.273Z,11.80
2018-09-23T17:20:38.550Z,6.03
2018-09-23T17:23:08.159Z,7.50
2018-09-23T17:25:37.209Z,10.70
2018-09-23T17:28:06.741Z,7.33
2018-09-23T17:30:35.910Z,6.00
2018-09-23T17:33:05.210Z,8.60
2018-09-23T17:35:34.248Z,7.67
2018-09-23T17:38:03.622Z,3.33
2018-09-23T17:40:33.014Z,5.07
2018-09-23T17:43:02.430Z,5.30
2018-09-23T17:45:31.678Z,6.83
2018-09-23T17:48:01.126Z,7.50
2018-09-23T17:50:30.515Z,4.80
2018-09-23T17:52:59.528Z,7.33
2018-09-23T17:55:28.755Z,5.27
2018-09-23T17:57:58.791Z,8.37
2018-09-23T18:00:27.839Z,5.30
2018-09-23T18:02:56.898Z,3.87
2018-09-23T18:05:25.978Z,4.40
2018-09-23T18:07:55.573Z,3.93
2018-09-23T18:10:25.291Z,6.67
2018-09-23T18:12:54.265Z,15.53
2018-09-23T18:15:23.952Z,4.90
2018-09-23T18:17:54.632Z,4.07
2018-09-23T18:20:24.024Z,5.67
2018-09-23T18:22:53.287Z,4.93
2018-09-23T18:25:24.581Z,10.17
2018-09-23T18:27:53.807Z,5.13
2018-09-23T18:30:23.435Z,4.23
2018-09-23T18:32:52.701Z,7.03
2018-09-23T18:35:22.820Z,2.73
2018-09-23T18:37:52.000Z,4.03
2018-09-23T18:40:21.750Z,4.03
2018-09-23T18:42:51.076Z,3.90
2018-09-23T18:45:20.667Z,3.37
2018-09-23T18:47:50.521Z,4.10
2018-09-23T18:50:19.931Z,5.73
2018-09-23T18:52:52.890Z,2.80
2018-09-23T18:55:27.676Z,3.83
2018-09-23T18:57:56.431Z,6.23
2018-09-23T19:00:26.026Z,4.63
2018-09-23T19:02:55.089Z,5.90
2018-09-23T19:05:24.302Z,6.13
2018-09-23T19:07:53.807Z,3.03
2018-09-23T19:10:23.106Z,5.17
2018-09-23T19:12:57.274Z,4.30
2018-09-23T19:15:26.452Z,2.23
2018-09-23T19:17:55.968Z,4.70
2018-09-23T19:20:25.343Z,5.53
2018-09-23T19:22:59.948Z,4.13
2018-09-23T19:25:33.551Z,3.67
2018-09-23T19:28:03.131Z,5.13
2018-09-23T19:30:33.094Z,3.53
2018-09-23T19:33:02.272Z,6.77
2018-09-23T19:35:31.288Z,4.50
2018-09-23T19:38:00.594Z,3.27
2018-09-23T19:40:30.056Z,4.03
2018-09-23T19:42:59.138Z,3.90
2018-09-23T19:45:28.738Z,4.17
2018-09-23T19:47:57.719Z,4.97
2018-09-23T19:50:27.161Z,3.23
2018-09-23T19:52:56.368Z,4.83
2018-09-23T19:55:25.601Z,3.87
2018-09-23T19:57:54.708Z,4.57
2018-09-23T20:00:24.814Z,3.00
2018-09-23T20:02:54.376Z,5.40
2018-09-23T20:05:23.794Z,4.57
2018-09-23T20:07:54.281Z,9.40
2018-09-23T20:10:24.092Z,5.63
2018-09-23T20:12:53.897Z,5.57
2018-09-23T20:15:27.439Z,3.87
2018-09-23T20:17:57.333Z,4.80
2018-09-23T20:20:27.111Z,5.23
2018-09-23T20:22:57.161Z,2.83
2018-09-23T20:25:30.120Z,5.97
2018-09-23T20:27:59.984Z,4.60
2018-09-23T20:30:28.798Z,4.97
2018-09-23T20:32:59.273Z,1.30
2018-09-23T20:35:28.693Z,4.20
2018-09-23T20:37:58.895Z,3.17
2018-09-23T20:40:29.235Z,6.37
2018-09-23T20:42:59.071Z,2.73
2018-09-23T20:45:29.500Z,5.57
2018-09-23T20:47:59.875Z,4.37
2018-09-23T20:50:29.645Z,2.47
2018-09-23T20:52:59.122Z,7.00
2018-09-23T20:55:29.826Z,6.13
